• Join FlightAware (Why Join?)
  • Login
  • US Flag 
04:10AM EDT


 

Airport Tracker/Info


-or-


 

Live Flight TrackerFlight Track Log ✈ N1ER ✈ 23-Oct-2013 ✈ KDAB - KSSI

Flight Track Log - Related Links

Times and Time Zones

All times are in EDT time to prevent confusion due to time zone crossing. See the N1ER flight status page for this flight to view local times or setup timezone preferences in your user account.

Time Position Orientation Groundspeed Altitude Reporting Facility
EDT Latitude Longitude Course Direction KTS MPH feet Rate Location/Type
02:13PM 29.1811 -81.1111 279° West 96 110 2,000  Level Jacksonville Center
02:14PM 29.1856 -81.1419 279° West 102 117 2,800 720 Climbing Jacksonville Center
02:15PM 29.1903 -81.1775 279° West 109 125 3,500 360 Climbing Jacksonville Center
02:16PM 29.2178 -81.1961 329° Northwest 121 139 3,600 360 Climbing Jacksonville Center
02:17PM 29.2428 -81.2028 347° North 107 123 4,300 720 Climbing Jacksonville Center
02:18PM 29.2742 -81.2022 North 106 122 5,100 600 Climbing Jacksonville Center
02:19PM 29.3056 -81.2017 North 114 131 5,600 240 Climbing Jacksonville Center
02:20PM 29.3453 -81.2058 355° North 136 157 5,600  Level Jacksonville Center
02:21PM 29.3808 -81.2125 351° North 133 153 5,600  Level Jacksonville Center
02:22PM 29.4183 -81.2164 355° North 135 155 5,600  Level Jacksonville Center
02:23PM 29.4581 -81.2231 352° North 138 159 5,600 -60 Level Jacksonville Center
02:24PM 29.4978 -81.2247 358° North 141 162 5,500 -60 Descending Jacksonville Center
02:25PM 29.5375 -81.2289 355° North 137 158 5,500  Level Jacksonville Center
02:26PM 29.5750 -81.2306 358° North 136 157 5,500  Level Jacksonville Center
02:27PM 29.6147 -81.2369 352° North 147 169 5,500  Level Jacksonville Center
02:27PM 29.6211 -81.2369 360° North 138 159 5,500  Level Jacksonville Center
02:27PM 29.6400 -81.2392 354° North 139 160 5,500  Level Jacksonville Center
02:28PM 29.6797 -81.2431 355° North 140 161 5,500  Level Jacksonville Center
02:29PM 29.7194 -81.2472 355° North 137 158 5,500  Level Jacksonville Center
02:31PM 29.7633 -81.2514 355° North 140 161 5,500  Level Jacksonville Center
02:32PM 29.8008 -81.2556 354° North 142 163 5,500  Level Jacksonville Center
02:33PM 29.8386 -81.2594 355° North 139 160 5,500  Level Jacksonville Center
02:34PM 29.8761 -81.2614 357° North 139 160 5,500  Level Jacksonville Center
02:36PM 29.9578 -81.2719 354° North 129 148 5,500  Level Jacksonville Center
02:37PM 29.9931 -81.2739 357° North 127 146 5,500  Level Jacksonville Center
02:38PM 30.0267 -81.2756 358° North 131 151 5,500  Level Jacksonville Center
02:39PM 30.0622 -81.2797 354° North 134 154 5,500  Level Jacksonville Center
02:40PM 30.0978 -81.2839 354° North 132 152 5,500  Level Jacksonville Center
02:41PM 30.1394 -81.2881 355° North 130 150 5,500  Level Jacksonville Center
02:42PM 30.1750 -81.2922 354° North 129 148 5,500  Level Jacksonville Center
02:43PM 30.2106 -81.2967 354° North 131 151 5,500  Level Jacksonville Center
02:44PM 30.2525 -81.3006 355° North 126 145 5,500  Level Jacksonville Center
02:45PM 30.2836 -81.3000 North 126 145 5,500  Level Jacksonville Center
02:46PM 30.3194 -81.3092 348° North 129 148 5,500  Level Jacksonville Center
02:47PM 30.3569 -81.3108 358° North 132 152 5,500  Level Jacksonville Center
02:48PM 30.3925 -81.3153 354° North 131 151 5,500  Level Jacksonville Center
02:49PM 30.4300 -81.3194 355° North 133 153 5,500  Level Jacksonville Center
02:50PM 30.4697 -81.3236 355° North 131 151 5,500  Level Jacksonville Center
02:51PM 30.5033 -81.3278 354° North 130 150 5,500  Level Jacksonville Center
02:52PM 30.5389 -81.3297 357° North 128 147 5,500  Level Jacksonville Center
02:53PM 30.5764 -81.3339 355° North 130 150 5,500  Level Jacksonville Center
02:54PM 30.6119 -81.3381 354° North 133 153 5,500  Level Jacksonville Center
02:55PM 30.6517 -81.3422 355° North 131 151 5,500  Level Jacksonville Center
02:56PM 30.6894 -81.3464 355° North 131 151 5,500  Level Jacksonville Center